createdAt,value
2023-05-14T00:00:34.380Z,0.51
2023-05-14T00:01:34.380Z,0.51
2023-05-14T00:02:34.465Z,0.51
2023-05-14T00:03:33.454Z,0.51
2023-05-14T00:04:33.555Z,0.52
2023-05-14T00:05:33.451Z,0.53
2023-05-14T00:06:34.414Z,0.53
2023-05-14T00:07:33.408Z,0.52
2023-05-14T00:08:34.442Z,0.53
2023-05-14T00:09:34.449Z,0.51
2023-05-14T00:10:34.464Z,0.53
2023-05-14T00:11:33.537Z,0.53
2023-05-14T00:12:33.477Z,0.52
2023-05-14T00:13:34.487Z,0.53
2023-05-14T00:14:34.500Z,0.51
2023-05-14T00:15:34.726Z,0.51
2023-05-14T00:16:34.574Z,0.51
2023-05-14T00:17:33.580Z,0.52
2023-05-14T00:18:33.575Z,0.52
2023-05-14T00:19:34.661Z,0.52
2023-05-14T00:20:33.561Z,0.51
2023-05-14T00:21:33.560Z,0.52
2023-05-14T00:22:33.561Z,0.53
2023-05-14T00:23:34.615Z,0.51
2023-05-14T00:24:33.606Z,0.51
2023-05-14T00:25:33.622Z,0.51
2023-05-14T00:26:34.608Z,0.52
2023-05-14T00:27:33.631Z,0.52
2023-05-14T00:28:33.635Z,0.53
2023-05-14T00:29:33.664Z,0.52
2023-05-14T00:30:34.642Z,0.51
2023-05-14T00:31:34.693Z,0.51
2023-05-14T00:32:34.713Z,0.53
2023-05-14T00:33:34.703Z,0.53
2023-05-14T00:34:34.705Z,0.51
2023-05-14T00:35:33.717Z,0.51
2023-05-14T00:36:33.730Z,0.50
2023-05-14T00:37:33.721Z,0.53
2023-05-14T00:38:33.733Z,0.52
2023-05-14T00:39:33.737Z,0.52
2023-05-14T00:40:34.769Z,0.53
2023-05-14T00:41:34.768Z,0.51
2023-05-14T00:42:34.779Z,0.53
2023-05-14T00:43:33.770Z,0.51
2023-05-14T00:44:34.802Z,0.51
2023-05-14T00:45:35.154Z,0.52
2023-05-14T00:46:33.886Z,0.51
2023-05-14T00:47:34.878Z,0.51
2023-05-14T00:48:34.845Z,0.51
2023-05-14T00:49:33.845Z,0.52
2023-05-14T00:50:34.833Z,0.52
2023-05-14T00:51:34.838Z,0.52
2023-05-14T00:52:34.865Z,0.52
2023-05-14T00:53:33.906Z,0.51
2023-05-14T00:54:33.873Z,0.52
2023-05-14T00:55:34.892Z,0.52
2023-05-14T00:56:35.062Z,0.52
2023-05-14T00:57:34.908Z,0.53
2023-05-14T00:58:34.939Z,0.51
2023-05-14T00:59:34.964Z,0.51
2023-05-14T01:00:34.956Z,0.52
2023-05-14T01:01:33.999Z,0.52
2023-05-14T01:02:35.035Z,0.52
2023-05-14T01:03:35.075Z,0.51
2023-05-14T01:04:34.042Z,0.51
2023-05-14T01:05:35.038Z,0.52
2023-05-14T01:06:35.035Z,0.52
2023-05-14T01:07:35.123Z,0.53
2023-05-14T01:08:35.073Z,0.51
2023-05-14T01:09:35.055Z,0.51
2023-05-14T01:10:35.068Z,0.52
2023-05-14T01:11:34.073Z,0.52
2023-05-14T01:12:35.084Z,0.52
2023-05-14T01:13:35.152Z,0.53
2023-05-14T01:14:35.126Z,0.51
2023-05-14T01:15:34.121Z,0.53
2023-05-14T01:16:34.190Z,0.52
2023-05-14T01:17:34.172Z,0.52
2023-05-14T01:18:35.255Z,0.51
2023-05-14T01:19:35.165Z,0.51
2023-05-14T01:20:34.226Z,0.51
2023-05-14T01:21:35.168Z,0.52
2023-05-14T01:22:34.176Z,0.52
2023-05-14T01:23:34.187Z,0.51
2023-05-14T01:24:34.369Z,0.51
2023-05-14T01:25:34.232Z,0.51
2023-05-14T01:26:34.214Z,0.53
2023-05-14T01:27:34.246Z,0.53
2023-05-14T01:28:34.239Z,0.53
2023-05-14T01:29:35.288Z,0.51
2023-05-14T01:30:34.314Z,0.51
2023-05-14T01:31:35.388Z,0.52
2023-05-14T01:32:34.351Z,0.52
2023-05-14T01:33:34.300Z,0.52
2023-05-14T01:34:34.314Z,0.51
2023-05-14T01:35:35.308Z,0.52
2023-05-14T01:36:35.413Z,0.50
2023-05-14T01:37:35.315Z,0.52
2023-05-14T01:38:35.332Z,0.51
2023-05-14T01:39:34.339Z,0.52
2023-05-14T01:40:34.361Z,0.52
2023-05-14T01:41:35.372Z,0.51
2023-05-14T01:42:35.380Z,0.52
2023-05-14T01:43:34.464Z,0.52
2023-05-14T01:44:35.387Z,0.51
2023-05-14T01:45:35.431Z,0.51
2023-05-14T01:46:35.477Z,0.52
2023-05-14T01:47:34.462Z,0.51
2023-05-14T01:48:34.431Z,0.52
2023-05-14T01:49:35.439Z,0.51
2023-05-14T01:50:35.469Z,0.50
2023-05-14T01:51:34.454Z,0.52
2023-05-14T01:52:35.521Z,0.52
2023-05-14T01:53:35.596Z,0.52
2023-05-14T01:54:35.503Z,0.52
2023-05-14T01:55:34.527Z,0.51
2023-05-14T01:56:34.534Z,0.51
2023-05-14T01:57:35.547Z,0.52
2023-05-14T01:58:34.558Z,0.52
2023-05-14T01:59:35.575Z,0.51
2023-05-14T02:00:35.588Z,0.51
2023-05-14T02:01:35.627Z,0.51
2023-05-14T02:02:34.673Z,0.52
2023-05-14T02:03:35.656Z,0.53
2023-05-14T02:04:35.658Z,0.51
2023-05-14T02:05:35.666Z,0.52
2023-05-14T02:06:35.688Z,0.52
2023-05-14T02:07:34.694Z,0.53
2023-05-14T02:08:34.729Z,0.53
2023-05-14T02:09:34.739Z,0.52
2023-05-14T02:10:35.731Z,0.51
2023-05-14T02:11:35.768Z,0.53
2023-05-14T02:12:34.771Z,0.52
2023-05-14T02:13:35.781Z,0.52
2023-05-14T02:14:35.800Z,0.51
2023-05-14T02:15:34.852Z,0.52
2023-05-14T02:16:35.810Z,0.53
2023-05-14T02:17:35.849Z,0.52
2023-05-14T02:18:34.867Z,0.52
2023-05-14T02:19:34.856Z,0.53
2023-05-14T02:20:35.061Z,0.52
2023-05-14T02:21:35.876Z,0.53
2023-05-14T02:22:35.883Z,0.53
2023-05-14T02:23:41.507Z,0.51
2023-05-14T02:24:35.924Z,0.52
2023-05-14T02:25:34.885Z,0.52
2023-05-14T02:26:35.892Z,0.52
2023-05-14T02:27:35.891Z,0.52
2023-05-14T02:28:34.863Z,0.53
2023-05-14T02:29:35.028Z,0.53
2023-05-14T02:30:34.866Z,0.53
2023-05-14T02:31:34.920Z,0.52
2023-05-14T02:32:34.953Z,0.53
2023-05-14T02:33:35.978Z,0.52
2023-05-14T02:34:35.819Z,0.52
2023-05-14T02:35:35.826Z,0.52
2023-05-14T02:36:34.832Z,0.53
2023-05-14T02:37:34.848Z,0.51
2023-05-14T02:38:35.797Z,0.53
2023-05-14T02:39:35.798Z,0.51
2023-05-14T02:40:35.792Z,0.52
2023-05-14T02:41:34.786Z,0.52
2023-05-14T02:42:34.769Z,0.52
2023-05-14T02:43:35.789Z,0.52
2023-05-14T02:44:35.744Z,0.52
2023-05-14T02:45:34.748Z,0.52
2023-05-14T02:46:35.801Z,0.51
2023-05-14T02:47:37.964Z,0.52
2023-05-14T02:48:34.721Z,0.52
2023-05-14T02:49:35.711Z,0.52
2023-05-14T02:50:35.727Z,0.53
2023-05-14T02:51:35.743Z,0.52
2023-05-14T02:52:34.755Z,0.53
2023-05-14T02:53:34.709Z,0.51
2023-05-14T02:54:35.690Z,0.52
2023-05-14T02:55:34.669Z,0.52
2023-05-14T02:56:34.712Z,0.51
2023-05-14T02:57:34.665Z,0.51
2023-05-14T02:58:35.656Z,0.51
2023-05-14T02:59:35.647Z,0.52
2023-05-14T03:00:35.677Z,0.53
2023-05-14T03:01:35.640Z,0.53
2023-05-14T03:02:35.733Z,0.52
2023-05-14T03:03:34.628Z,0.52
2023-05-14T03:04:35.626Z,0.51
2023-05-14T03:05:35.610Z,0.51
2023-05-14T03:06:34.646Z,0.52
2023-05-14T03:07:35.620Z,0.52
2023-05-14T03:08:34.579Z,0.51
2023-05-14T03:09:37.967Z,0.51
2023-05-14T03:10:35.600Z,0.51
2023-05-14T03:11:34.575Z,0.52
2023-05-14T03:12:34.591Z,0.52
2023-05-14T03:13:35.551Z,0.52
2023-05-14T03:14:34.555Z,0.52
2023-05-14T03:15:34.567Z,0.52
2023-05-14T03:16:35.590Z,0.52
2023-05-14T03:17:34.576Z,0.51
2023-05-14T03:18:34.540Z,0.51
2023-05-14T03:19:35.525Z,0.51
2023-05-14T03:20:34.491Z,0.50
2023-05-14T03:21:35.518Z,0.51
2023-05-14T03:22:35.522Z,0.53
2023-05-14T03:23:34.504Z,0.50
2023-05-14T03:24:35.482Z,0.52
2023-05-14T03:25:35.474Z,0.51
2023-05-14T03:26:35.471Z,0.52
2023-05-14T03:27:35.746Z,0.51
2023-05-14T03:28:34.480Z,0.52
2023-05-14T03:29:35.460Z,0.52
2023-05-14T03:30:35.503Z,0.52
2023-05-14T03:31:34.451Z,0.52
2023-05-14T03:32:34.455Z,0.52
2023-05-14T03:33:34.414Z,0.52
2023-05-14T03:34:34.425Z,0.51
2023-05-14T03:35:34.426Z,0.53
2023-05-14T03:36:35.423Z,0.52
2023-05-14T03:37:35.406Z,0.52
2023-05-14T03:38:34.368Z,0.52
2023-05-14T03:39:35.368Z,0.52
2023-05-14T03:40:35.377Z,0.52
2023-05-14T03:41:34.370Z,0.52
2023-05-14T03:42:35.374Z,0.52
2023-05-14T03:43:35.358Z,0.52
2023-05-14T03:44:34.364Z,0.52
2023-05-14T03:45:35.326Z,0.52
2023-05-14T03:46:35.352Z,0.53
2023-05-14T03:47:35.345Z,0.52
2023-05-14T03:48:34.327Z,0.52
2023-05-14T03:49:34.303Z,0.52
2023-05-14T03:50:34.330Z,0.51
2023-05-14T03:51:35.289Z,0.51
2023-05-14T03:52:34.291Z,0.52
2023-05-14T03:53:35.270Z,0.52
2023-05-14T03:54:35.263Z,0.52
2023-05-14T03:55:35.278Z,0.52
2023-05-14T03:56:34.255Z,0.53
2023-05-14T03:57:34.247Z,0.52
2023-05-14T03:58:34.238Z,0.53
2023-05-14T03:59:34.251Z,0.52
2023-05-14T04:00:35.253Z,0.51
2023-05-14T04:01:35.211Z,0.52
2023-05-14T04:02:34.392Z,0.51
2023-05-14T04:03:35.377Z,0.50
2023-05-14T04:04:35.323Z,0.53
2023-05-14T04:05:34.303Z,0.51
2023-05-14T04:06:34.315Z,0.51
2023-05-14T04:07:34.336Z,0.52
2023-05-14T04:08:35.357Z,0.52
2023-05-14T04:09:34.386Z,0.52
2023-05-14T04:10:35.396Z,0.52
2023-05-14T04:11:34.446Z,0.52
2023-05-14T04:12:35.480Z,0.53
2023-05-14T04:13:35.488Z,0.52
2023-05-14T04:14:35.499Z,0.51
2023-05-14T04:15:34.641Z,0.51
2023-05-14T04:16:34.626Z,0.52
2023-05-14T04:17:35.669Z,0.52
2023-05-14T04:18:35.627Z,0.53
2023-05-14T04:19:35.645Z,0.52
2023-05-14T04:20:34.634Z,0.52
2023-05-14T04:21:35.673Z,0.51
2023-05-14T04:22:35.675Z,0.51
2023-05-14T04:23:35.695Z,0.52
2023-05-14T04:24:34.715Z,0.51
2023-05-14T04:25:35.744Z,0.51
2023-05-14T04:26:34.758Z,0.51
2023-05-14T04:27:35.766Z,0.51
2023-05-14T04:28:35.790Z,0.51
2023-05-14T04:29:35.810Z,0.52
2023-05-14T04:30:35.816Z,0.52
2023-05-14T04:31:35.888Z,0.51
2023-05-14T04:32:35.900Z,0.52
2023-05-14T04:33:35.876Z,0.52
2023-05-14T04:34:35.911Z,0.52
2023-05-14T04:35:36.037Z,0.51
2023-05-14T04:36:35.955Z,0.52
2023-05-14T04:37:34.968Z,0.50
2023-05-14T04:38:36.001Z,0.51
2023-05-14T04:39:36.021Z,0.53
2023-05-14T04:40:35.054Z,0.52
2023-05-14T04:41:36.085Z,0.52
2023-05-14T04:42:36.121Z,0.53
2023-05-14T04:43:35.123Z,0.50
2023-05-14T04:44:36.141Z,0.52
2023-05-14T04:45:35.209Z,0.52
2023-05-14T04:46:36.229Z,0.52
2023-05-14T04:47:36.288Z,0.52
2023-05-14T04:48:35.204Z,0.52
2023-05-14T04:49:35.245Z,0.51
2023-05-14T04:50:36.324Z,0.52
2023-05-14T04:51:36.264Z,0.51
2023-05-14T04:52:36.293Z,0.52
2023-05-14T04:53:36.310Z,0.52
2023-05-14T04:54:36.355Z,0.51
2023-05-14T04:55:36.376Z,0.52
2023-05-14T04:56:36.370Z,0.52
2023-05-14T04:57:36.390Z,0.52
2023-05-14T04:58:36.415Z,0.52
2023-05-14T04:59:36.442Z,0.52
2023-05-14T05:00:36.475Z,0.52
2023-05-14T05:01:36.565Z,0.52
2023-05-14T05:02:35.548Z,0.52
2023-05-14T05:03:36.584Z,0.52
2023-05-14T05:04:36.562Z,0.51
2023-05-14T05:05:36.628Z,0.51
2023-05-14T05:06:36.646Z,0.52
2023-05-14T05:07:36.637Z,0.52
2023-05-14T05:08:36.786Z,0.51
2023-05-14T05:09:36.711Z,0.50
2023-05-14T05:10:35.752Z,0.52
2023-05-14T05:11:35.774Z,0.52
2023-05-14T05:12:36.794Z,0.52
2023-05-14T05:13:36.830Z,0.52
2023-05-14T05:14:36.848Z,0.52
2023-05-14T05:15:36.905Z,0.51
2023-05-14T05:16:36.936Z,0.51
2023-05-14T05:17:36.954Z,0.52
2023-05-14T05:18:40.804Z,0.52
2023-05-14T05:19:43.637Z,0.52
2023-05-14T05:20:36.969Z,0.52
2023-05-14T05:21:35.942Z,0.53
2023-05-14T05:22:36.959Z,0.53
2023-05-14T05:23:35.927Z,0.53
2023-05-14T05:24:35.948Z,0.53
2023-05-14T05:25:35.999Z,0.52
2023-05-14T05:26:36.984Z,0.52
2023-05-14T05:27:35.918Z,0.53
2023-05-14T05:28:36.892Z,0.53
2023-05-14T05:29:36.900Z,0.52
2023-05-14T05:30:36.904Z,0.51
2023-05-14T05:31:36.953Z,0.52
2023-05-14T05:32:36.919Z,0.51
2023-05-14T05:33:35.871Z,0.51
2023-05-14T05:34:35.890Z,0.52
2023-05-14T05:35:35.918Z,0.52
2023-05-14T05:36:35.942Z,0.52
2023-05-14T05:37:35.826Z,0.52
2023-05-14T05:38:36.841Z,0.52
2023-05-14T05:39:35.820Z,0.53
2023-05-14T05:40:35.813Z,0.52
2023-05-14T05:41:36.845Z,0.52
2023-05-14T05:42:35.804Z,0.52
2023-05-14T05:43:36.802Z,0.51
2023-05-14T05:44:36.788Z,0.51
2023-05-14T05:45:36.769Z,0.52
2023-05-14T05:46:36.828Z,0.53
2023-05-14T05:47:36.822Z,0.52
2023-05-14T05:48:36.782Z,0.53
2023-05-14T05:49:36.740Z,0.52
2023-05-14T05:50:36.763Z,0.53
2023-05-14T05:51:36.788Z,0.51
2023-05-14T05:52:36.753Z,0.52
2023-05-14T05:53:36.712Z,0.52
2023-05-14T05:54:36.706Z,0.52
2023-05-14T05:55:36.699Z,0.52
2023-05-14T05:56:35.686Z,0.53
2023-05-14T05:57:36.697Z,0.52
2023-05-14T05:58:35.673Z,0.50
2023-05-14T05:59:36.678Z,0.52
2023-05-14T06:00:35.671Z,0.52
2023-05-14T06:01:35.741Z,0.54
2023-05-14T06:02:36.749Z,0.53
2023-05-14T06:03:36.643Z,0.53
2023-05-14T06:04:36.635Z,0.54
2023-05-14T06:05:36.658Z,0.53
2023-05-14T06:06:36.649Z,0.53
2023-05-14T06:07:36.644Z,0.54
2023-05-14T06:08:35.617Z,0.52
2023-05-14T06:09:35.619Z,0.52
2023-05-14T06:10:35.614Z,0.52
2023-05-14T06:11:36.649Z,0.52
2023-05-14T06:12:35.676Z,0.53
2023-05-14T06:13:37.433Z,0.52
2023-05-14T06:14:36.725Z,0.53
2023-05-14T06:15:36.757Z,0.52
2023-05-14T06:16:35.844Z,0.52
2023-05-14T06:17:35.861Z,0.53
2023-05-14T06:18:36.829Z,0.53
2023-05-14T06:19:36.838Z,0.52
2023-05-14T06:20:35.863Z,0.53
2023-05-14T06:21:35.908Z,0.52
2023-05-14T06:22:36.932Z,0.53
2023-05-14T06:23:35.929Z,0.52
2023-05-14T06:24:36.964Z,0.51
2023-05-14T06:25:36.978Z,0.53
2023-05-14T06:26:36.991Z,0.53
2023-05-14T06:27:37.039Z,0.52
2023-05-14T06:28:37.055Z,0.53
2023-05-14T06:29:37.090Z,0.52
2023-05-14T06:30:37.139Z,0.52
2023-05-14T06:31:36.163Z,0.53
2023-05-14T06:32:36.329Z,0.51
2023-05-14T06:33:36.195Z,0.52
2023-05-14T06:34:37.244Z,0.52
2023-05-14T06:35:36.229Z,0.52
2023-05-14T06:36:37.271Z,0.52
2023-05-14T06:37:36.301Z,0.53
2023-05-14T06:38:37.330Z,0.53
2023-05-14T06:39:37.363Z,0.52
2023-05-14T06:40:37.382Z,0.51
2023-05-14T06:41:37.381Z,0.52
2023-05-14T06:42:36.400Z,0.53
2023-05-14T06:43:37.430Z,0.52
2023-05-14T06:44:36.459Z,0.53
2023-05-14T06:45:37.464Z,0.52
2023-05-14T06:46:37.473Z,0.53
2023-05-14T06:47:36.569Z,0.52
2023-05-14T06:48:36.544Z,0.52
2023-05-14T06:49:37.521Z,0.52
2023-05-14T06:50:37.551Z,0.52
2023-05-14T06:51:36.536Z,0.52
2023-05-14T06:52:37.580Z,0.53
2023-05-14T06:53:37.593Z,0.52
2023-05-14T06:54:36.641Z,0.53
2023-05-14T06:55:37.624Z,0.53
2023-05-14T06:56:36.659Z,0.52
2023-05-14T06:57:38.594Z,0.52
2023-05-14T06:58:37.678Z,0.54
2023-05-14T06:59:36.643Z,0.54
2023-05-14T07:00:37.654Z,0.54
2023-05-14T07:01:36.710Z,0.51
2023-05-14T07:02:37.682Z,0.52
2023-05-14T07:03:36.636Z,0.54
2023-05-14T07:04:37.754Z,0.53
2023-05-14T07:05:37.635Z,0.52
2023-05-14T07:06:37.594Z,0.52
2023-05-14T07:07:37.635Z,0.52
2023-05-14T07:08:37.581Z,0.51
2023-05-14T07:09:37.627Z,0.52
2023-05-14T07:10:36.597Z,0.53
2023-05-14T07:11:37.288Z,0.53
2023-05-14T07:12:37.553Z,0.52
2023-05-14T07:13:37.542Z,0.53
2023-05-14T07:14:37.548Z,0.52
2023-05-14T07:15:37.532Z,0.53
2023-05-14T07:16:36.575Z,0.51
2023-05-14T07:17:36.536Z,0.52
2023-05-14T07:18:37.578Z,0.53
2023-05-14T07:19:36.497Z,0.52
2023-05-14T07:20:37.497Z,0.53
2023-05-14T07:21:37.492Z,0.52
2023-05-14T07:22:36.478Z,0.51
2023-05-14T07:23:37.537Z,0.52
2023-05-14T07:24:37.484Z,0.52
2023-05-14T07:25:36.471Z,0.52
2023-05-14T07:26:37.476Z,0.50
2023-05-14T07:27:37.446Z,0.52
2023-05-14T07:28:36.469Z,0.53
2023-05-14T07:29:37.437Z,0.53
2023-05-14T07:30:37.445Z,0.53
2023-05-14T07:31:37.486Z,0.52
2023-05-14T07:32:36.480Z,0.53
2023-05-14T07:33:37.410Z,0.52
2023-05-14T07:34:37.426Z,0.52
2023-05-14T07:35:37.407Z,0.53
2023-05-14T07:36:36.371Z,0.53
2023-05-14T07:37:37.372Z,0.51
2023-05-14T07:38:37.358Z,0.51
2023-05-14T07:39:37.360Z,0.51
2023-05-14T07:40:37.366Z,0.52
2023-05-14T07:41:37.409Z,0.52
2023-05-14T07:42:37.656Z,0.53
2023-05-14T07:43:37.335Z,0.52
2023-05-14T07:44:36.336Z,0.53
2023-05-14T07:45:37.319Z,0.53
2023-05-14T07:46:37.315Z,0.52
2023-05-14T07:47:37.436Z,0.53
2023-05-14T07:48:36.430Z,0.53
2023-05-14T07:49:37.291Z,0.52
2023-05-14T07:50:36.293Z,0.52
2023-05-14T07:51:36.277Z,0.51
2023-05-14T07:52:36.285Z,0.52
2023-05-14T07:53:37.324Z,0.52
2023-05-14T07:54:37.251Z,0.52
2023-05-14T07:55:36.253Z,0.52
2023-05-14T07:56:36.238Z,0.52
2023-05-14T07:57:37.281Z,0.53
2023-05-14T07:58:37.268Z,0.52
2023-05-14T07:59:37.222Z,0.51
2023-05-14T08:00:36.206Z,0.53
2023-05-14T08:01:39.173Z,0.51
2023-05-14T08:02:36.306Z,0.53
2023-05-14T08:03:37.284Z,0.53
2023-05-14T08:04:36.588Z,0.53
2023-05-14T08:05:37.186Z,0.52
2023-05-14T08:06:37.192Z,0.51
2023-05-14T08:07:38.040Z,0.52
2023-05-14T08:08:37.260Z,0.54
2023-05-14T08:09:36.148Z,0.53
2023-05-14T08:10:37.190Z,0.52
2023-05-14T08:11:37.177Z,0.52
2023-05-14T08:12:36.161Z,0.50
2023-05-14T08:13:37.150Z,0.51
2023-05-14T08:14:36.228Z,0.53
2023-05-14T08:15:37.168Z,0.52
2023-05-14T08:16:37.189Z,0.52
2023-05-14T08:17:37.113Z,0.53
2023-05-14T08:18:36.137Z,0.52
2023-05-14T08:19:37.103Z,0.53
2023-05-14T08:20:36.070Z,0.51
2023-05-14T08:21:37.068Z,0.51
2023-05-14T08:22:36.063Z,0.52
2023-05-14T08:23:37.040Z,0.52
2023-05-14T08:24:37.035Z,0.52
2023-05-14T08:25:36.039Z,0.53
2023-05-14T08:26:36.049Z,0.52
2023-05-14T08:27:37.013Z,0.51
2023-05-14T08:28:36.011Z,0.52
2023-05-14T08:29:35.996Z,0.53
2023-05-14T08:30:37.087Z,0.53
2023-05-14T08:31:36.990Z,0.52
2023-05-14T08:32:37.025Z,0.53
2023-05-14T08:33:35.982Z,0.53
2023-05-14T08:34:36.966Z,0.52
2023-05-14T08:35:35.955Z,0.51
2023-05-14T08:36:36.947Z,0.52
2023-05-14T08:37:35.935Z,0.54
2023-05-14T08:38:36.944Z,0.53
2023-05-14T08:39:35.931Z,0.53
2023-05-14T08:40:35.947Z,0.52
2023-05-14T08:41:35.945Z,0.52
2023-05-14T08:42:35.944Z,0.53
2023-05-14T08:43:35.990Z,0.53
2023-05-14T08:44:36.031Z,0.53
2023-05-14T08:45:37.003Z,0.53
2023-05-14T08:46:36.056Z,0.52
2023-05-14T08:47:37.047Z,0.52
2023-05-14T08:48:36.128Z,0.52
2023-05-14T08:49:36.058Z,0.52
2023-05-14T08:50:36.097Z,0.51
2023-05-14T08:51:37.080Z,0.52
2023-05-14T08:52:37.107Z,0.52
2023-05-14T08:53:37.106Z,0.52
2023-05-14T08:54:37.107Z,0.51
2023-05-14T08:55:36.123Z,0.52
2023-05-14T08:56:36.151Z,0.51
2023-05-14T08:57:37.158Z,0.52
2023-05-14T08:58:37.176Z,0.51
2023-05-14T08:59:37.183Z,0.52
2023-05-14T09:00:37.189Z,0.50
2023-05-14T09:01:36.212Z,0.53
2023-05-14T09:02:37.269Z,0.52
2023-05-14T09:03:37.279Z,0.51
2023-05-14T09:04:36.261Z,0.52
2023-05-14T09:05:37.262Z,0.51
2023-05-14T09:06:36.242Z,0.51
2023-05-14T09:07:37.271Z,0.52
2023-05-14T09:08:37.287Z,0.51
2023-05-14T09:09:36.299Z,0.51
2023-05-14T09:10:37.306Z,0.51
2023-05-14T09:11:37.331Z,0.51
2023-05-14T09:12:37.759Z,0.51
2023-05-14T09:13:37.332Z,0.52
2023-05-14T09:14:36.359Z,0.52
2023-05-14T09:15:37.368Z,0.51
2023-05-14T09:16:36.392Z,0.51
2023-05-14T09:17:37.399Z,0.51
2023-05-14T09:18:37.445Z,0.51
2023-05-14T09:19:37.412Z,0.50
2023-05-14T09:20:36.414Z,0.50
2023-05-14T09:21:36.417Z,0.50
2023-05-14T09:22:36.442Z,0.51
2023-05-14T09:23:36.431Z,0.52
2023-05-14T09:24:37.449Z,0.51
2023-05-14T09:25:37.474Z,0.51
2023-05-14T09:26:36.444Z,0.51
2023-05-14T09:27:37.473Z,0.52
2023-05-14T09:28:36.478Z,0.51
2023-05-14T09:29:36.448Z,0.52
2023-05-14T09:30:37.474Z,0.53
2023-05-14T09:31:37.515Z,0.51
2023-05-14T09:32:36.534Z,0.52
2023-05-14T09:33:36.514Z,0.51
2023-05-14T09:34:36.494Z,0.50
2023-05-14T09:35:37.487Z,0.51
2023-05-14T09:36:36.485Z,0.51
2023-05-14T09:37:37.508Z,0.51
2023-05-14T09:38:37.518Z,0.51
2023-05-14T09:39:36.514Z,0.52
2023-05-14T09:40:36.530Z,0.52
2023-05-14T09:41:37.516Z,0.51
2023-05-14T09:42:37.514Z,0.51
2023-05-14T09:43:37.519Z,0.52
2023-05-14T09:44:36.528Z,0.54
2023-05-14T09:45:36.511Z,0.52
2023-05-14T09:46:36.537Z,0.51
2023-05-14T09:47:37.624Z,0.51
2023-05-14T09:48:36.552Z,0.53
2023-05-14T09:49:36.528Z,0.51
2023-05-14T09:50:37.552Z,0.51
2023-05-14T09:51:37.525Z,0.51
2023-05-14T09:52:36.539Z,0.52
2023-05-14T09:53:36.545Z,0.52
2023-05-14T09:54:37.575Z,0.51
2023-05-14T09:55:37.566Z,0.50
2023-05-14T09:56:37.564Z,0.51
2023-05-14T09:57:37.559Z,0.50
2023-05-14T09:58:36.573Z,0.52
2023-05-14T09:59:37.687Z,0.52
2023-05-14T10:00:37.581Z,0.51
2023-05-14T10:01:37.756Z,0.52
2023-05-14T10:02:37.831Z,0.51
2023-05-14T10:03:36.584Z,0.51
2023-05-14T10:04:37.724Z,0.51
2023-05-14T10:05:37.594Z,0.51
2023-05-14T10:06:36.617Z,0.51
2023-05-14T10:07:37.620Z,0.51
2023-05-14T10:08:36.617Z,0.53
2023-05-14T10:09:37.623Z,0.51
2023-05-14T10:10:36.617Z,0.51
2023-05-14T10:11:36.644Z,0.52
2023-05-14T10:12:36.638Z,0.51
2023-05-14T10:13:36.656Z,0.52
2023-05-14T10:14:37.642Z,0.52
2023-05-14T10:15:36.647Z,0.52
2023-05-14T10:16:37.710Z,0.52
2023-05-14T10:17:36.658Z,0.53
2023-05-14T10:18:37.694Z,0.52
2023-05-14T10:19:36.652Z,0.51
2023-05-14T10:20:37.664Z,0.51
2023-05-14T10:21:37.640Z,0.52
2023-05-14T10:22:37.668Z,0.54
2023-05-14T10:23:36.635Z,0.54
2023-05-14T10:24:36.659Z,0.52
2023-05-14T10:25:37.638Z,0.52
2023-05-14T10:26:36.623Z,0.53
2023-05-14T10:27:37.672Z,0.52
2023-05-14T10:28:37.664Z,0.52
2023-05-14T10:29:36.648Z,0.53
2023-05-14T10:30:37.641Z,0.52
2023-05-14T10:31:37.823Z,0.52
2023-05-14T10:32:37.755Z,0.53
2023-05-14T10:33:37.669Z,0.53
2023-05-14T10:34:36.651Z,0.53
2023-05-14T10:35:36.656Z,0.53
2023-05-14T10:36:37.656Z,0.53
2023-05-14T10:37:37.658Z,0.54
2023-05-14T10:38:37.677Z,0.54
2023-05-14T10:39:37.650Z,0.54
2023-05-14T10:40:37.642Z,0.53
2023-05-14T10:41:36.653Z,0.54
2023-05-14T10:42:37.673Z,0.54
2023-05-14T10:43:37.665Z,0.54
2023-05-14T10:44:36.649Z,0.55
2023-05-14T10:45:36.618Z,0.54
2023-05-14T10:46:36.667Z,0.55
2023-05-14T10:47:36.638Z,0.56
2023-05-14T10:48:36.657Z,0.55
2023-05-14T10:49:43.415Z,0.55
2023-05-14T10:50:37.617Z,0.55
2023-05-14T10:51:37.944Z,0.55
2023-05-14T10:52:36.606Z,0.56
2023-05-14T10:53:37.627Z,0.56
2023-05-14T10:54:37.614Z,0.57
2023-05-14T10:55:37.587Z,0.56
2023-05-14T10:56:36.590Z,0.57
2023-05-14T10:57:37.571Z,0.57
2023-05-14T10:58:36.562Z,0.57
2023-05-14T10:59:36.583Z,0.56
2023-05-14T11:00:37.654Z,0.57
2023-05-14T11:01:37.565Z,0.56
2023-05-14T11:02:36.617Z,0.55
2023-05-14T11:03:37.582Z,0.56
2023-05-14T11:04:36.542Z,0.55
2023-05-14T11:05:37.514Z,0.56
2023-05-14T11:06:37.507Z,0.55
2023-05-14T11:07:36.515Z,0.55
2023-05-14T11:08:37.519Z,0.55
2023-05-14T11:09:37.507Z,0.56
2023-05-14T11:10:36.524Z,0.55
2023-05-14T11:11:36.530Z,0.55
2023-05-14T11:12:37.484Z,0.56
2023-05-14T11:13:36.469Z,0.56
2023-05-14T11:14:37.484Z,0.56
2023-05-14T11:15:36.464Z,0.55
2023-05-14T11:16:37.521Z,0.55
2023-05-14T11:17:37.600Z,0.56
2023-05-14T11:18:37.460Z,0.56
2023-05-14T11:19:37.432Z,0.56
2023-05-14T11:20:36.407Z,0.56
2023-05-14T11:21:36.473Z,0.56
2023-05-14T11:22:37.451Z,0.57
2023-05-14T11:23:36.503Z,0.55
2023-05-14T11:24:36.543Z,0.55
2023-05-14T11:25:37.572Z,0.56
2023-05-14T11:26:37.730Z,0.56
2023-05-14T11:27:36.608Z,0.56
2023-05-14T11:28:37.616Z,0.55
2023-05-14T11:29:37.672Z,0.56
2023-05-14T11:30:36.673Z,0.56
2023-05-14T11:31:36.731Z,0.56
2023-05-14T11:32:36.778Z,0.57
2023-05-14T11:33:36.850Z,0.57
2023-05-14T11:34:36.801Z,0.57
2023-05-14T11:35:37.813Z,0.57
2023-05-14T11:36:36.828Z,0.56
2023-05-14T11:37:36.869Z,0.56
2023-05-14T11:38:36.846Z,0.56
2023-05-14T11:39:37.869Z,0.57
2023-05-14T11:40:36.921Z,0.56
2023-05-14T11:41:37.913Z,0.56
2023-05-14T11:42:36.964Z,0.56
2023-05-14T11:43:36.975Z,0.57
2023-05-14T11:44:38.023Z,0.56
2023-05-14T11:45:38.093Z,0.56
2023-05-14T11:46:38.150Z,0.56
2023-05-14T11:47:37.222Z,0.57
2023-05-14T11:48:38.170Z,0.56
2023-05-14T11:49:38.211Z,0.56
2023-05-14T11:50:37.228Z,0.58
2023-05-14T11:51:38.245Z,0.58
2023-05-14T11:52:38.280Z,0.55
2023-05-14T11:53:37.328Z,0.57
2023-05-14T11:54:37.320Z,0.56
2023-05-14T11:55:38.348Z,0.56
2023-05-14T11:56:37.379Z,0.56
2023-05-14T11:57:37.425Z,0.56
2023-05-14T11:58:37.495Z,0.55
2023-05-14T11:59:38.508Z,0.58
2023-05-14T12:00:37.561Z,0.56
2023-05-14T12:01:37.591Z,0.56
2023-05-14T12:02:38.744Z,0.55
2023-05-14T12:03:38.872Z,0.56
2023-05-14T12:04:38.814Z,0.56
2023-05-14T12:05:38.824Z,0.56
2023-05-14T12:06:37.900Z,0.55
2023-05-14T12:07:37.934Z,0.56
2023-05-14T12:08:38.987Z,0.57
2023-05-14T12:09:39.103Z,0.56
2023-05-14T12:10:38.124Z,0.55
2023-05-14T12:11:38.179Z,0.55
2023-05-14T12:12:39.294Z,0.57
2023-05-14T12:13:39.281Z,0.55
2023-05-14T12:14:39.291Z,0.55
2023-05-14T12:15:39.372Z,0.56
2023-05-14T12:16:38.573Z,0.57
2023-05-14T12:17:39.498Z,0.55
2023-05-14T12:18:38.579Z,0.54
2023-05-14T12:19:38.508Z,0.55
2023-05-14T12:20:39.535Z,0.54
2023-05-14T12:21:39.550Z,0.55
2023-05-14T12:22:39.581Z,0.55
2023-05-14T12:23:38.640Z,0.56
2023-05-14T12:24:39.693Z,0.55
2023-05-14T12:25:38.718Z,0.56
2023-05-14T12:26:39.774Z,0.56
2023-05-14T12:27:38.859Z,0.53
2023-05-14T12:28:38.913Z,0.53
2023-05-14T12:29:40.017Z,0.53
2023-05-14T12:30:39.006Z,0.53
2023-05-14T12:31:39.128Z,0.54
2023-05-14T12:32:39.215Z,0.56
2023-05-14T12:33:39.227Z,0.54
2023-05-14T12:34:39.304Z,0.54
2023-05-14T12:35:40.438Z,0.54
2023-05-14T12:36:40.380Z,0.54
2023-05-14T12:37:40.460Z,0.53
2023-05-14T12:38:40.573Z,0.54
2023-05-14T12:39:39.568Z,0.54
2023-05-14T12:40:40.618Z,0.55
2023-05-14T12:41:39.686Z,0.55
2023-05-14T12:42:40.723Z,0.54
2023-05-14T12:43:39.805Z,0.55
2023-05-14T12:44:39.803Z,0.55
2023-05-14T12:45:40.881Z,0.53
2023-05-14T12:46:39.855Z,0.54
2023-05-14T12:47:40.927Z,0.55
2023-05-14T12:48:40.927Z,0.55
2023-05-14T12:49:39.977Z,0.54
2023-05-14T12:50:41.008Z,0.54
2023-05-14T12:51:41.056Z,0.53
2023-05-14T12:52:44.324Z,0.54
2023-05-14T12:53:40.100Z,0.54
2023-05-14T12:54:42.902Z,0.53
2023-05-14T12:55:40.099Z,0.54
2023-05-14T12:56:41.149Z,0.54
2023-05-14T12:57:41.089Z,0.54
2023-05-14T12:58:40.090Z,0.54
2023-05-14T12:59:41.097Z,0.55
2023-05-14T13:00:41.164Z,0.53
2023-05-14T13:01:41.124Z,0.52
2023-05-14T13:02:42.780Z,0.52
2023-05-14T13:03:41.083Z,0.52
2023-05-14T13:04:40.215Z,0.52
2023-05-14T13:05:40.042Z,0.52
2023-05-14T13:06:41.010Z,0.53
2023-05-14T13:07:41.104Z,0.52
2023-05-14T13:08:41.444Z,0.51
2023-05-14T13:09:40.104Z,0.51
2023-05-14T13:10:41.231Z,0.52
2023-05-14T13:11:41.109Z,0.52
2023-05-14T13:12:40.170Z,0.50
2023-05-14T13:13:41.136Z,0.50
2023-05-14T13:14:41.142Z,0.51
2023-05-14T13:15:41.127Z,0.51
2023-05-14T13:16:40.173Z,0.51
2023-05-14T13:17:40.314Z,0.51
2023-05-14T13:18:41.226Z,0.53